createdAt,value
2018-02-25T00:01:24.251Z,-7.90
2018-02-25T00:03:54.966Z,-8.00
2018-02-25T00:06:27.185Z,-8.00
2018-02-25T00:08:58.488Z,-8.00
2018-02-25T00:11:32.604Z,-7.90
2018-02-25T00:14:07.946Z,-7.90
2018-02-25T00:16:44.593Z,-7.90
2018-02-25T00:19:17.612Z,-7.90
2018-02-25T00:21:55.296Z,-7.90
2018-02-25T00:27:04.101Z,-8.00
2018-02-25T00:29:31.836Z,-8.10
2018-02-25T00:32:00.546Z,-8.10
2018-02-25T00:34:28.375Z,-8.20
2018-02-25T00:36:56.086Z,-8.30
2018-02-25T00:39:23.799Z,-8.30
2018-02-25T00:41:54.542Z,-8.30
2018-02-25T00:44:23.011Z,-8.30
2018-02-25T00:46:55.338Z,-8.30
2018-02-25T00:49:35.860Z,-8.30
2018-02-25T00:52:15.084Z,-8.30
2018-02-25T00:54:57.405Z,-8.40
2018-02-25T01:00:15.732Z,-8.50
2018-02-25T01:25:58.241Z,-9.50
2018-02-25T01:45:29.515Z,-9.00
2018-02-25T01:48:03.498Z,-9.00
2018-02-25T01:50:39.014Z,-9.00
2018-02-25T01:53:10.195Z,-9.00
2018-02-25T01:55:39.048Z,-8.90
2018-02-25T01:58:08.616Z,-8.90
2018-02-25T02:00:38.545Z,-8.90
2018-02-25T02:03:09.933Z,-9.00
2018-02-25T02:05:38.629Z,-9.00
2018-02-25T02:08:06.777Z,-9.10
2018-02-25T02:10:35.212Z,-9.10
2018-02-25T02:13:04.818Z,-9.10
2018-02-25T02:15:32.824Z,-9.20
2018-02-25T02:18:02.662Z,-9.20
2018-02-25T02:20:33.514Z,-9.20
2018-02-25T02:23:11.426Z,-9.30
2018-02-25T02:25:40.289Z,-9.30
2018-02-25T02:28:11.168Z,-9.40
2018-02-25T02:30:42.182Z,-9.50
2018-02-25T02:33:12.225Z,-9.50
2018-02-25T02:35:42.115Z,-9.50
2018-02-25T02:38:10.763Z,-9.50
2018-02-25T02:40:40.392Z,-9.50
2018-02-25T02:43:09.545Z,-9.50
2018-02-25T02:45:39.179Z,-9.50
2018-02-25T02:48:07.944Z,-9.60
2018-02-25T02:50:36.753Z,-9.60
2018-02-25T02:53:05.878Z,-9.70
2018-02-25T02:55:34.433Z,-9.70
2018-02-25T02:58:03.665Z,-9.70
2018-02-25T03:00:31.978Z,-9.80
2018-02-25T03:03:03.420Z,-9.80
2018-02-25T03:05:31.884Z,-9.90
2018-02-25T03:08:00.481Z,-9.90
2018-02-25T03:10:32.116Z,-9.90
2018-02-25T03:13:02.222Z,-9.90
2018-02-25T03:15:33.035Z,-9.90
2018-02-25T03:18:03.696Z,-9.90
2018-02-25T03:20:34.112Z,-9.90
2018-02-25T03:23:03.271Z,-9.90
2018-02-25T03:25:32.935Z,-9.90
2018-02-25T03:28:01.835Z,-9.90
2018-02-25T03:30:30.919Z,-9.90
2018-02-25T03:33:00.830Z,-9.90
2018-02-25T03:35:30.028Z,-9.90
2018-02-25T03:37:58.868Z,-9.90
2018-02-25T03:40:27.990Z,-9.90
2018-02-25T03:42:56.058Z,-9.90
2018-02-25T03:45:25.680Z,-9.90
2018-02-25T03:47:53.979Z,-9.90
2018-02-25T03:50:24.706Z,-10.00
2018-02-25T03:52:53.378Z,-10.00
2018-02-25T03:55:21.824Z,-10.00
2018-02-25T03:57:51.322Z,-10.00
2018-02-25T04:00:21.080Z,-10.10
2018-02-25T04:02:50.148Z,-10.10
2018-02-25T04:05:20.598Z,-10.10
2018-02-25T04:07:49.030Z,-10.10
2018-02-25T04:10:18.060Z,-10.20
2018-02-25T04:12:49.782Z,-10.20
2018-02-25T04:15:18.596Z,-10.20
2018-02-25T04:17:48.516Z,-10.30
2018-02-25T04:20:17.079Z,-10.30
2018-02-25T04:22:47.452Z,-10.30
2018-02-25T04:25:17.672Z,-10.30
2018-02-25T04:27:46.581Z,-10.40
2018-02-25T04:30:15.673Z,-10.40
2018-02-25T04:32:44.143Z,-10.30
2018-02-25T04:35:13.241Z,-10.30
2018-02-25T04:37:41.597Z,-10.20
2018-02-25T04:40:09.469Z,-10.20
2018-02-25T04:42:40.476Z,-10.10
2018-02-25T04:45:09.531Z,-10.20
2018-02-25T04:47:37.741Z,-10.20
2018-02-25T04:50:06.502Z,-10.20
2018-02-25T04:52:34.771Z,-10.20
2018-02-25T04:55:03.494Z,-10.20
2018-02-25T04:57:31.678Z,-10.20
2018-02-25T05:00:00.112Z,-10.20
2018-02-25T05:02:28.943Z,-10.20
2018-02-25T05:04:57.827Z,-10.20
2018-02-25T05:07:26.652Z,-10.10
2018-02-25T05:09:54.603Z,-10.20
2018-02-25T05:12:23.072Z,-10.10
2018-02-25T05:14:51.210Z,-10.10
2018-02-25T05:17:19.314Z,-10.20
2018-02-25T05:19:48.250Z,-10.20
2018-02-25T05:22:17.796Z,-10.10
2018-02-25T05:24:45.921Z,-10.10
2018-02-25T05:27:14.576Z,-10.10
2018-02-25T05:29:42.722Z,-10.10
2018-02-25T05:32:11.019Z,-10.10
2018-02-25T05:34:39.183Z,-10.10
2018-02-25T05:37:07.381Z,-10.20
2018-02-25T05:39:35.917Z,-10.20
2018-02-25T05:42:04.248Z,-10.20
2018-02-25T05:44:32.545Z,-10.20
2018-02-25T05:47:00.581Z,-10.30
2018-02-25T05:49:29.024Z,-10.30
2018-02-25T05:51:57.329Z,-10.30
2018-02-25T05:54:25.521Z,-10.30
2018-02-25T05:56:53.584Z,-10.30
2018-02-25T05:59:21.561Z,-10.30
2018-02-25T06:01:50.113Z,-10.30
2018-02-25T06:04:18.197Z,-10.30
2018-02-25T06:06:46.272Z,-10.20
2018-02-25T06:09:15.306Z,-10.20
2018-02-25T06:11:43.215Z,-10.30
2018-02-25T06:14:11.686Z,-10.30
2018-02-25T06:16:39.465Z,-10.30
2018-02-25T06:19:07.290Z,-10.30
2018-02-25T06:21:35.545Z,-10.30
2018-02-25T06:24:04.124Z,-10.30
2018-02-25T06:26:33.301Z,-10.30
2018-02-25T06:29:02.940Z,-11.10
2018-02-25T06:31:31.595Z,-10.10
2018-02-25T06:34:00.535Z,-9.90
2018-02-25T06:36:28.802Z,-9.80
2018-02-25T06:38:58.047Z,-9.80
2018-02-25T06:41:26.893Z,-9.80
2018-02-25T06:43:54.705Z,-9.90
2018-02-25T06:46:22.733Z,-9.80
2018-02-25T06:48:52.419Z,-9.80
2018-02-25T06:51:20.310Z,-9.80
2018-02-25T06:53:48.650Z,-9.80
2018-02-25T06:56:17.722Z,-9.70
2018-02-25T06:58:45.580Z,-9.70
2018-02-25T07:01:16.794Z,-9.70
2018-02-25T07:03:46.814Z,-9.70
2018-02-25T07:06:17.002Z,-9.60
2018-02-25T07:08:45.204Z,-9.60
2018-02-25T07:11:13.051Z,-9.50
2018-02-25T07:13:40.922Z,-9.40
2018-02-25T07:16:08.975Z,-9.40
2018-02-25T07:18:36.966Z,-9.20
2018-02-25T07:21:05.191Z,-9.10
2018-02-25T07:23:33.324Z,-9.10
2018-02-25T07:26:01.973Z,-8.80
2018-02-25T07:28:32.228Z,-8.80
2018-02-25T07:31:00.614Z,-8.80
2018-02-25T07:33:28.440Z,-8.70
2018-02-25T07:35:56.431Z,-8.70
2018-02-25T07:38:26.551Z,-8.60
2018-02-25T07:40:54.511Z,-8.60
2018-02-25T07:43:22.532Z,-8.50
2018-02-25T07:45:50.575Z,-8.40
2018-02-25T07:48:19.609Z,-8.30
2018-02-25T07:50:47.912Z,-8.30
2018-02-25T07:53:15.882Z,-8.20
2018-02-25T07:55:44.609Z,-8.10
2018-02-25T07:58:12.665Z,-8.00
2018-02-25T08:00:43.025Z,-8.00
2018-02-25T08:03:11.225Z,-7.90
2018-02-25T08:05:40.099Z,-7.80
2018-02-25T08:08:08.822Z,-7.80
2018-02-25T08:10:37.153Z,-7.70
2018-02-25T08:13:05.653Z,-7.50
2018-02-25T08:15:35.249Z,-7.50
2018-02-25T08:18:03.521Z,-7.30
2018-02-25T08:20:31.759Z,-6.90
2018-02-25T08:23:01.108Z,-6.70
2018-02-25T08:25:29.232Z,-6.40
2018-02-25T08:27:57.535Z,-6.40
2018-02-25T08:30:26.408Z,-6.50
2018-02-25T08:32:54.624Z,-6.70
2018-02-25T08:35:23.870Z,-6.80
2018-02-25T08:37:52.397Z,-6.40
2018-02-25T08:40:20.767Z,-5.40
2018-02-25T08:42:51.621Z,-4.20
2018-02-25T08:45:21.236Z,-3.00
2018-02-25T08:50:38.081Z,-1.60
2018-02-25T08:53:08.081Z,-2.40
2018-02-25T08:55:42.178Z,-2.90
2018-02-25T08:58:21.565Z,-2.50
2018-02-25T09:00:56.443Z,-0.30
2018-02-25T09:03:35.619Z,-0.30
2018-02-25T09:06:17.912Z,-0.50
2018-02-25T09:08:49.438Z,0.50
2018-02-25T09:11:17.114Z,1.70
2018-02-25T09:13:44.749Z,2.10
2018-02-25T09:16:12.418Z,1.70
2018-02-25T09:18:40.084Z,2.20
2018-02-25T09:21:07.744Z,2.20
2018-02-25T09:23:35.401Z,2.70
2018-02-25T09:26:03.043Z,2.90
2018-02-25T09:28:31.466Z,3.10
2018-02-25T09:30:59.883Z,3.10
2018-02-25T09:33:27.561Z,3.90
2018-02-25T09:35:56.146Z,4.20
2018-02-25T09:38:23.766Z,3.90
2018-02-25T09:40:51.450Z,4.10
2018-02-25T09:43:19.846Z,5.00
2018-02-25T09:45:47.547Z,5.00
2018-02-25T09:48:15.765Z,5.30
2018-02-25T09:50:45.244Z,5.20
2018-02-25T09:53:12.907Z,5.20
2018-02-25T09:55:40.641Z,6.00
2018-02-25T09:58:08.314Z,5.80
2018-02-25T10:00:35.962Z,5.70
2018-02-25T10:03:03.660Z,6.30
2018-02-25T10:05:32.137Z,5.20
2018-02-25T10:07:59.818Z,5.20
2018-02-25T10:10:27.480Z,6.60
2018-02-25T10:12:55.900Z,6.10
2018-02-25T10:15:23.669Z,6.10
2018-02-25T10:17:51.338Z,6.80
2018-02-25T10:20:18.965Z,7.50
2018-02-25T10:22:46.583Z,7.10
2018-02-25T10:25:15.036Z,6.80
2018-02-25T10:27:42.704Z,6.70
2018-02-25T10:30:10.412Z,6.30
2018-02-25T10:32:38.756Z,6.40
2018-02-25T10:35:06.461Z,6.40
2018-02-25T10:37:34.137Z,6.30
2018-02-25T10:40:01.853Z,6.00
2018-02-25T10:42:29.567Z,4.80
2018-02-25T10:44:57.308Z,6.10
2018-02-25T10:47:25.108Z,6.80
2018-02-25T10:49:52.825Z,7.20
2018-02-25T10:52:21.463Z,7.30
2018-02-25T10:54:49.198Z,6.70
2018-02-25T10:57:16.926Z,6.70
2018-02-25T10:59:45.327Z,8.70
2018-02-25T11:02:13.829Z,8.30
2018-02-25T11:04:42.223Z,8.30
2018-02-25T11:07:11.168Z,8.40
2018-02-25T11:09:39.143Z,8.30
2018-02-25T11:12:12.422Z,7.90
2018-02-25T11:14:43.393Z,7.60
2018-02-25T11:17:11.313Z,6.70
2018-02-25T11:19:39.466Z,7.60
2018-02-25T11:22:09.184Z,8.90
2018-02-25T11:24:40.898Z,9.20
2018-02-25T11:27:10.158Z,10.70
2018-02-25T11:29:38.072Z,10.60
2018-02-25T11:32:42.398Z,9.60
2018-02-25T11:35:10.113Z,9.60
2018-02-25T11:37:42.095Z,8.30
2018-02-25T11:40:11.210Z,7.40
2018-02-25T11:42:39.237Z,8.20
2018-02-25T11:45:07.518Z,8.50
2018-02-25T11:47:35.665Z,7.80
2018-02-25T11:50:04.399Z,9.00
2018-02-25T11:52:32.477Z,9.00
2018-02-25T11:55:00.737Z,10.00
2018-02-25T11:57:30.277Z,10.00
2018-02-25T11:59:58.981Z,9.80
2018-02-25T12:02:26.735Z,10.10
2018-02-25T12:04:55.726Z,11.20
2018-02-25T12:07:25.838Z,11.30
2018-02-25T12:09:53.695Z,10.60
2018-02-25T12:12:22.403Z,10.30
2018-02-25T12:14:59.262Z,10.90
2018-02-25T12:17:21.229Z,10.90
2018-02-25T12:19:49.903Z,9.70
2018-02-25T12:22:17.946Z,10.80
2018-02-25T12:24:46.085Z,9.30
2018-02-25T12:27:13.971Z,10.90
2018-02-25T12:29:42.920Z,11.00
2018-02-25T12:32:10.727Z,11.00
2018-02-25T12:34:39.384Z,10.50
2018-02-25T12:37:07.278Z,9.80
2018-02-25T12:39:35.236Z,11.10
2018-02-25T12:42:07.302Z,11.70
2018-02-25T12:44:35.160Z,10.80
2018-02-25T12:47:05.220Z,10.40
2018-02-25T12:49:36.273Z,10.50
2018-02-25T12:52:12.482Z,10.10
2018-02-25T12:54:44.160Z,10.00
2018-02-25T12:57:12.503Z,9.70
2018-02-25T12:59:41.679Z,9.40
2018-02-25T13:02:09.709Z,9.40
2018-02-25T13:04:38.593Z,9.70
2018-02-25T13:07:08.448Z,10.40
2018-02-25T13:09:37.699Z,11.00
2018-02-25T13:12:05.633Z,10.80
2018-02-25T13:14:36.999Z,8.40
2018-02-25T13:17:06.303Z,8.30
2018-02-25T13:19:35.052Z,8.80
2018-02-25T13:22:04.211Z,9.20
2018-02-25T13:24:38.441Z,9.80
2018-02-25T13:27:06.666Z,10.30
2018-02-25T13:29:39.487Z,11.40
2018-02-25T13:32:09.125Z,11.00
2018-02-25T13:34:37.112Z,10.60
2018-02-25T13:37:06.186Z,10.50
2018-02-25T13:39:35.107Z,10.20
2018-02-25T13:42:04.014Z,9.60
2018-02-25T13:44:33.898Z,9.10
2018-02-25T13:47:03.035Z,9.00
2018-02-25T13:49:30.956Z,9.90
2018-02-25T13:51:58.925Z,10.10
2018-02-25T13:54:27.707Z,9.20
2018-02-25T13:56:56.047Z,9.00
2018-02-25T13:59:24.920Z,9.20
2018-02-25T14:01:55.807Z,9.20
2018-02-25T14:04:28.274Z,6.50
2018-02-25T14:06:57.469Z,4.90
2018-02-25T14:09:26.665Z,4.90
2018-02-25T14:11:58.866Z,4.40
2018-02-25T14:14:29.175Z,4.20
2018-02-25T14:16:59.346Z,4.50
2018-02-25T14:19:28.380Z,5.50
2018-02-25T14:22:05.693Z,6.30
2018-02-25T14:24:34.096Z,5.90
2018-02-25T14:27:05.043Z,4.50
2018-02-25T14:29:33.479Z,2.60
2018-02-25T14:32:03.276Z,1.60
2018-02-25T14:34:32.163Z,2.30
2018-02-25T14:37:04.005Z,3.80
2018-02-25T14:39:35.428Z,5.30
2018-02-25T14:42:14.650Z,5.10
2018-02-25T14:44:43.912Z,5.00
2018-02-25T14:47:15.254Z,3.10
2018-02-25T14:49:43.358Z,2.00
2018-02-25T14:52:11.312Z,1.10
2018-02-25T14:54:51.192Z,0.50
2018-02-25T14:57:22.233Z,-0.40
2018-02-25T14:59:54.245Z,-0.90
2018-02-25T15:02:26.450Z,-1.70
2018-02-25T15:04:56.460Z,-1.70
2018-02-25T15:07:28.657Z,-1.50
2018-02-25T15:10:03.688Z,-1.30
2018-02-25T15:12:34.780Z,-1.10
2018-02-25T15:15:04.430Z,-0.80
2018-02-25T15:17:36.714Z,-1.10
2018-02-25T15:20:06.930Z,-1.20
2018-02-25T15:22:35.874Z,-1.60
2018-02-25T15:25:05.444Z,-1.70
2018-02-25T15:27:35.129Z,-1.70
2018-02-25T15:30:08.223Z,-2.00
2018-02-25T15:35:20.599Z,-2.80
2018-02-25T15:37:50.326Z,-3.10
2018-02-25T15:40:22.201Z,-3.10
2018-02-25T15:42:54.998Z,-3.20
2018-02-25T15:45:24.657Z,-3.30
2018-02-25T15:47:55.222Z,-3.50
2018-02-25T15:50:33.602Z,-3.70
2018-02-25T15:53:04.507Z,-3.80
2018-02-25T15:55:33.325Z,-3.80
2018-02-25T15:58:07.786Z,-3.90
2018-02-25T16:00:39.758Z,-4.00
2018-02-25T16:05:54.684Z,-4.20
2018-02-25T16:08:25.449Z,-4.30
2018-02-25T16:10:55.577Z,-4.30
2018-02-25T16:13:25.861Z,-4.40
2018-02-25T16:16:01.536Z,-4.60
2018-02-25T16:18:31.170Z,-4.60
2018-02-25T16:21:02.765Z,-4.60
2018-02-25T16:26:07.248Z,-4.80
2018-02-25T16:28:35.090Z,-4.80
2018-02-25T16:33:38.275Z,-4.90
2018-02-25T16:36:06.448Z,-5.00
2018-02-25T16:38:34.821Z,-5.10
2018-02-25T16:41:03.161Z,-5.10
2018-02-25T16:43:31.201Z,-5.20
2018-02-25T16:45:59.597Z,-5.30
2018-02-25T16:48:28.884Z,-5.40
2018-02-25T16:50:58.023Z,-5.50
2018-02-25T16:53:25.970Z,-5.50
2018-02-25T16:55:53.783Z,-5.60
2018-02-25T16:58:21.786Z,-5.70
2018-02-25T17:00:52.016Z,-5.80
2018-02-25T17:03:19.995Z,-5.80
2018-02-25T17:05:47.891Z,-5.90
2018-02-25T17:08:15.837Z,-5.90
2018-02-25T17:10:43.604Z,-6.00
2018-02-25T17:13:11.639Z,-6.00
2018-02-25T17:15:39.414Z,-6.10
2018-02-25T17:18:07.240Z,-6.10
2018-02-25T17:20:34.936Z,-6.20
2018-02-25T17:23:02.632Z,-6.30
2018-02-25T17:25:30.488Z,-6.30
2018-02-25T17:27:58.191Z,-6.30
2018-02-25T17:30:26.253Z,-6.40
2018-02-25T17:32:54.118Z,-6.50
2018-02-25T17:35:22.671Z,-6.60
2018-02-25T17:37:50.931Z,-6.70
2018-02-25T17:40:18.586Z,-6.70
2018-02-25T17:42:46.465Z,-6.70
2018-02-25T17:45:15.098Z,-6.70
2018-02-25T17:47:42.727Z,-6.80
2018-02-25T17:50:10.488Z,-6.80
2018-02-25T17:52:38.945Z,-6.80
2018-02-25T17:55:06.996Z,-6.90
2018-02-25T17:57:35.250Z,-6.90
2018-02-25T18:00:03.851Z,-7.00
2018-02-25T18:02:31.747Z,-7.00
2018-02-25T18:04:59.710Z,-7.00
2018-02-25T18:07:29.384Z,-7.00
2018-02-25T18:09:59.989Z,-7.10
2018-02-25T18:12:28.217Z,-7.10
2018-02-25T18:14:59.613Z,-7.10
2018-02-25T18:17:29.952Z,-7.20
2018-02-25T18:19:58.433Z,-7.20
2018-02-25T18:22:26.333Z,-7.20
2018-02-25T18:24:54.205Z,-7.30
2018-02-25T18:27:22.315Z,-7.30
2018-02-25T18:29:50.948Z,-7.40
2018-02-25T18:32:19.503Z,-7.50
2018-02-25T18:34:47.485Z,-7.50
2018-02-25T18:37:15.672Z,-7.50
2018-02-25T18:39:43.748Z,-7.60
2018-02-25T18:42:11.685Z,-7.60
2018-02-25T18:44:39.937Z,-7.70
2018-02-25T18:47:07.857Z,-7.70
2018-02-25T18:49:35.780Z,-7.80
2018-02-25T18:52:03.694Z,-7.90
2018-02-25T18:54:48.309Z,-7.90
2018-02-25T18:57:16.450Z,-7.90
2018-02-25T18:59:47.225Z,-7.90
2018-02-25T19:02:15.408Z,-8.00
2018-02-25T19:04:44.602Z,-8.00
2018-02-25T19:07:13.652Z,-8.00
2018-02-25T19:09:41.832Z,-8.10
2018-02-25T19:12:20.228Z,-8.00
2018-02-25T19:14:49.150Z,-8.10
2018-02-25T19:17:22.583Z,-8.10
2018-02-25T19:19:50.790Z,-8.10
2018-02-25T19:22:20.877Z,-8.00
2018-02-25T19:24:49.572Z,-8.10
2018-02-25T19:27:21.385Z,-8.10
2018-02-25T19:29:52.852Z,-8.10
2018-02-25T19:32:22.266Z,-8.10
2018-02-25T19:34:50.572Z,-8.20
2018-02-25T19:37:25.775Z,-8.20
2018-02-25T19:40:01.750Z,-8.30
2018-02-25T19:42:29.527Z,-8.30
2018-02-25T19:45:12.640Z,-8.30
2018-02-25T19:47:40.613Z,-8.30
2018-02-25T19:50:09.074Z,-8.30
2018-02-25T19:52:38.043Z,-8.30
2018-02-25T19:55:06.012Z,-8.40
2018-02-25T19:57:34.744Z,-8.40
2018-02-25T20:00:03.159Z,-8.40
2018-02-25T20:02:32.088Z,-8.40
2018-02-25T20:05:11.729Z,-8.40
2018-02-25T20:07:41.782Z,-8.40
2018-02-25T20:12:51.361Z,-8.60
2018-02-25T20:15:56.329Z,-8.60
2018-02-25T20:18:44.024Z,-8.70
2018-02-25T20:21:12.168Z,-8.70
2018-02-25T20:23:40.804Z,-8.80
2018-02-25T20:26:08.843Z,-8.90
2018-02-25T20:31:37.255Z,-8.80
2018-02-25T20:34:06.853Z,-8.90
2018-02-25T20:36:39.319Z,-8.90
2018-02-25T20:39:07.270Z,-9.00
2018-02-25T20:41:35.378Z,-9.00
2018-02-25T20:44:03.169Z,-9.00
2018-02-25T20:46:34.963Z,-9.00
2018-02-25T20:49:08.892Z,-9.00
2018-02-25T20:51:36.948Z,-9.00
2018-02-25T20:54:09.031Z,-9.00
2018-02-25T20:56:37.680Z,-9.10
2018-02-25T20:59:05.599Z,-9.10
2018-02-25T21:01:38.795Z,-9.10
2018-02-25T21:04:06.851Z,-9.20
2018-02-25T21:06:38.038Z,-9.30
2018-02-25T21:09:06.402Z,-9.40
2018-02-25T21:11:36.412Z,-9.40
2018-02-25T21:14:09.269Z,-9.50
2018-02-25T21:16:38.448Z,-9.60
2018-02-25T21:19:13.642Z,-9.60
2018-02-25T21:21:42.725Z,-9.70
2018-02-25T21:24:13.199Z,-9.70
2018-02-25T21:26:55.902Z,-9.70
2018-02-25T21:29:25.501Z,-9.80
2018-02-25T21:31:55.527Z,-9.90
2018-02-25T21:34:23.578Z,-10.00
2018-02-25T21:36:51.697Z,-10.00
2018-02-25T21:39:21.258Z,-10.10
2018-02-25T21:41:50.727Z,-10.30
2018-02-25T21:44:19.004Z,-10.30
2018-02-25T21:46:47.192Z,-10.30
2018-02-25T21:49:15.291Z,-10.40
2018-02-25T21:51:44.360Z,-10.50
2018-02-25T21:54:18.056Z,-10.50
2018-02-25T21:56:53.401Z,-10.60
2018-02-25T21:59:27.103Z,-10.70
2018-02-25T22:02:00.554Z,-10.80
2018-02-25T22:04:29.757Z,-10.90
2018-02-25T22:06:57.927Z,-11.00
2018-02-25T22:09:26.084Z,-11.00
2018-02-25T22:11:54.858Z,-11.10
2018-02-25T22:14:22.771Z,-11.10
2018-02-25T22:16:50.868Z,-11.10
2018-02-25T22:19:19.047Z,-11.20
2018-02-25T22:21:47.083Z,-11.30
2018-02-25T22:24:15.225Z,-11.40
2018-02-25T22:26:43.416Z,-11.40
2018-02-25T22:29:11.794Z,-11.50
2018-02-25T22:31:40.507Z,-11.50
2018-02-25T22:34:08.934Z,-11.60
2018-02-25T22:36:37.034Z,-11.60
2018-02-25T22:39:05.203Z,-11.70
2018-02-25T22:41:34.380Z,-11.80
2018-02-25T22:44:02.627Z,-11.90
2018-02-25T22:46:30.993Z,-11.90
2018-02-25T22:48:59.217Z,-11.90
2018-02-25T22:51:27.562Z,-12.00
2018-02-25T22:53:55.578Z,-12.00
2018-02-25T22:56:23.658Z,-12.00
2018-02-25T22:58:52.084Z,-12.00
2018-02-25T23:01:20.240Z,-12.10
2018-02-25T23:03:48.604Z,-12.10
2018-02-25T23:06:17.207Z,-12.20
2018-02-25T23:08:45.822Z,-12.20
2018-02-25T23:11:14.357Z,-12.20
2018-02-25T23:13:42.881Z,-12.30
2018-02-25T23:16:11.074Z,-12.40
2018-02-25T23:18:39.268Z,-12.40
2018-02-25T23:21:08.472Z,-12.50
2018-02-25T23:23:36.728Z,-12.50
2018-02-25T23:26:04.606Z,-12.50
2018-02-25T23:28:32.492Z,-12.50
2018-02-25T23:31:00.504Z,-12.60
2018-02-25T23:33:28.353Z,-12.60
2018-02-25T23:35:56.220Z,-12.60
2018-02-25T23:38:24.013Z,-12.60
2018-02-25T23:40:51.774Z,-12.60
2018-02-25T23:43:20.594Z,-12.70
2018-02-25T23:45:48.489Z,-12.70
2018-02-25T23:48:16.564Z,-12.70
2018-02-25T23:50:44.625Z,-12.80
2018-02-25T23:53:12.451Z,-12.70
2018-02-25T23:55:40.416Z,-12.70
2018-02-25T23:58:08.475Z,-12.70
